Terminal Aerodrome Forecast
Issued by NWS

Home | Current Version | Previous Version | Text Only | Print | Product List | Glossary Off
Versions: 1 2 3 4 5 6 7 8 9 10 11 12 13 14 15 16 17 18 19

000
FTUS43 KMPX 222100 AAA
TAFRNH
TAF AMD
KRNH 222140Z 2222/2318 11007KT 4SM BR OVC012
      TEMPO 2222/2224 6SM BR SCT012 OVC020
     FM230000 10010KT 5SM -RASN BR OVC010
     FM230300 08009KT 4SM -SN BR OVC008
     FM230800 04012KT 1 1/2SM -SN BR OVC005=

USA.gov is the U.S. government's official web portal to all federal, state and local government web resources and services.